sensor_id;sensor_type;location;lat;lon;timestamp;temperature;humidity
12115;DHT22;6121;49.810;6.418;2022-11-20T00:00:47;8.90;99.90
12115;DHT22;6121;49.810;6.418;2022-11-20T00:03:13;8.90;99.90
12115;DHT22;6121;49.810;6.418;2022-11-20T00:05:38;8.80;99.90
12115;DHT22;6121;49.810;6.418;2022-11-20T00:08:04;8.80;99.90
12115;DHT22;6121;49.810;6.418;2022-11-20T00:10:30;8.80;99.90
12115;DHT22;6121;49.810;6.418;2022-11-20T00:12:58;8.80;99.90
12115;DHT22;6121;49.810;6.418;2022-11-20T00:15:23;8.70;99.90
12115;DHT22;6121;49.810;6.418;2022-11-20T00:17:49;8.80;99.90
12115;DHT22;6121;49.810;6.418;2022-11-20T00:20:15;8.90;99.90
12115;DHT22;6121;49.810;6.418;2022-11-20T00:22:41;8.90;99.90
12115;DHT22;6121;49.810;6.418;2022-11-20T00:25:06;8.90;99.90
12115;DHT22;6121;49.810;6.418;2022-11-20T00:27:32;9.00;99.90
12115;DHT22;6121;49.810;6.418;2022-11-20T00:29:58;8.90;99.90
12115;DHT22;6121;49.810;6.418;2022-11-20T00:32:23;8.80;99.90
12115;DHT22;6121;49.810;6.418;2022-11-20T00:34:49;8.80;99.90
12115;DHT22;6121;49.810;6.418;2022-11-20T00:37:14;8.80;99.90
12115;DHT22;6121;49.810;6.418;2022-11-20T00:39:40;8.80;99.90
12115;DHT22;6121;49.810;6.418;2022-11-20T00:42:06;8.90;99.90
12115;DHT22;6121;49.810;6.418;2022-11-20T00:44:32;8.90;99.90
12115;DHT22;6121;49.810;6.418;2022-11-20T00:46:57;9.00;99.90
12115;DHT22;6121;49.810;6.418;2022-11-20T00:49:23;9.10;99.90
12115;DHT22;6121;49.810;6.418;2022-11-20T00:51:48;9.20;99.90
12115;DHT22;6121;49.810;6.418;2022-11-20T00:54:14;9.10;99.90
12115;DHT22;6121;49.810;6.418;2022-11-20T00:56:39;9.20;99.90
12115;DHT22;6121;49.810;6.418;2022-11-20T00:59:05;9.20;99.90
12115;DHT22;6121;49.810;6.418;2022-11-20T01:01:31;9.00;99.90
12115;DHT22;6121;49.810;6.418;2022-11-20T01:03:59;8.90;99.90
12115;DHT22;6121;49.810;6.418;2022-11-20T01:06:28;8.80;99.90
12115;DHT22;6121;49.810;6.418;2022-11-20T01:08:58;8.80;99.90
12115;DHT22;6121;49.810;6.418;2022-11-20T01:11:26;8.70;99.90
12115;DHT22;6121;49.810;6.418;2022-11-20T01:13:54;8.80;99.90
12115;DHT22;6121;49.810;6.418;2022-11-20T01:16:25;8.90;99.90
12115;DHT22;6121;49.810;6.418;2022-11-20T01:18:53;9.00;99.90
12115;DHT22;6121;49.810;6.418;2022-11-20T01:21:27;8.80;99.90
12115;DHT22;6121;49.810;6.418;2022-11-20T01:23:53;8.90;99.90
12115;DHT22;6121;49.810;6.418;2022-11-20T01:26:23;9.00;99.90
12115;DHT22;6121;49.810;6.418;2022-11-20T01:28:49;9.10;99.90
12115;DHT22;6121;49.810;6.418;2022-11-20T01:31:19;8.90;99.90
12115;DHT22;6121;49.810;6.418;2022-11-20T01:33:46;8.90;99.90
12115;DHT22;6121;49.810;6.418;2022-11-20T01:36:13;8.90;99.90
12115;DHT22;6121;49.810;6.418;2022-11-20T01:38:39;8.80;99.90
12115;DHT22;6121;49.810;6.418;2022-11-20T01:41:06;8.70;99.90
12115;DHT22;6121;49.810;6.418;2022-11-20T01:43:32;8.80;99.90
12115;DHT22;6121;49.810;6.418;2022-11-20T01:46:19;8.80;99.90
12115;DHT22;6121;49.810;6.418;2022-11-20T01:48:57;8.80;99.90
12115;DHT22;6121;49.810;6.418;2022-11-20T01:51:33;8.70;99.90
12115;DHT22;6121;49.810;6.418;2022-11-20T01:54:03;8.60;99.90
12115;DHT22;6121;49.810;6.418;2022-11-20T01:56:32;8.80;99.90
12115;DHT22;6121;49.810;6.418;2022-11-20T01:59:02;8.80;99.90
12115;DHT22;6121;49.810;6.418;2022-11-20T02:01:29;8.90;99.90
12115;DHT22;6121;49.810;6.418;2022-11-20T02:03:55;8.90;99.90
12115;DHT22;6121;49.810;6.418;2022-11-20T02:06:42;8.90;99.90
12115;DHT22;6121;49.810;6.418;2022-11-20T02:09:08;8.90;99.90
12115;DHT22;6121;49.810;6.418;2022-11-20T02:11:33;8.80;99.90
12115;DHT22;6121;49.810;6.418;2022-11-20T02:13:59;8.70;99.90
12115;DHT22;6121;49.810;6.418;2022-11-20T02:16:29;8.70;99.90
12115;DHT22;6121;49.810;6.418;2022-11-20T02:18:57;8.60;99.90
12115;DHT22;6121;49.810;6.418;2022-11-20T02:26:35;8.90;99.90
12115;DHT22;6121;49.810;6.418;2022-11-20T02:29:03;8.80;99.90
12115;DHT22;6121;49.810;6.418;2022-11-20T02:31:33;8.80;99.90
12115;DHT22;6121;49.810;6.418;2022-11-20T02:33:59;8.80;99.90
12115;DHT22;6121;49.810;6.418;2022-11-20T02:36:26;8.80;99.90
12115;DHT22;6121;49.810;6.418;2022-11-20T02:38:52;8.90;99.90
12115;DHT22;6121;49.810;6.418;2022-11-20T02:41:18;8.90;99.90
12115;DHT22;6121;49.810;6.418;2022-11-20T02:43:43;8.90;99.90
12115;DHT22;6121;49.810;6.418;2022-11-20T02:46:09;8.90;99.90
12115;DHT22;6121;49.810;6.418;2022-11-20T02:48:34;8.80;99.90
12115;DHT22;6121;49.810;6.418;2022-11-20T02:51:00;8.70;99.90
12115;DHT22;6121;49.810;6.418;2022-11-20T02:53:26;8.70;99.90
12115;DHT22;6121;49.810;6.418;2022-11-20T02:55:51;8.60;99.90
12115;DHT22;6121;49.810;6.418;2022-11-20T02:58:17;8.80;99.90
12115;DHT22;6121;49.810;6.418;2022-11-20T03:00:42;8.80;99.90
12115;DHT22;6121;49.810;6.418;2022-11-20T03:03:08;8.60;99.90
12115;DHT22;6121;49.810;6.418;2022-11-20T03:05:34;8.60;99.90
12115;DHT22;6121;49.810;6.418;2022-11-20T03:07:59;8.60;99.90
12115;DHT22;6121;49.810;6.418;2022-11-20T03:10:25;8.70;99.90
12115;DHT22;6121;49.810;6.418;2022-11-20T03:12:54;8.70;99.90
12115;DHT22;6121;49.810;6.418;2022-11-20T03:15:22;8.60;99.90
12115;DHT22;6121;49.810;6.418;2022-11-20T03:17:47;8.50;99.90
12115;DHT22;6121;49.810;6.418;2022-11-20T03:20:13;8.50;99.90
12115;DHT22;6121;49.810;6.418;2022-11-20T03:22:39;8.60;99.90
12115;DHT22;6121;49.810;6.418;2022-11-20T03:25:05;8.60;99.90
12115;DHT22;6121;49.810;6.418;2022-11-20T03:27:36;8.70;99.90
12115;DHT22;6121;49.810;6.418;2022-11-20T03:30:03;8.60;99.90
12115;DHT22;6121;49.810;6.418;2022-11-20T03:32:29;8.70;99.90
12115;DHT22;6121;49.810;6.418;2022-11-20T03:34:54;8.50;99.90
12115;DHT22;6121;49.810;6.418;2022-11-20T03:37:20;8.60;99.90
12115;DHT22;6121;49.810;6.418;2022-11-20T03:39:45;8.60;99.90
12115;DHT22;6121;49.810;6.418;2022-11-20T03:42:11;8.60;99.90
12115;DHT22;6121;49.810;6.418;2022-11-20T03:44:55;8.60;99.90
12115;DHT22;6121;49.810;6.418;2022-11-20T03:47:21;8.40;99.90
12115;DHT22;6121;49.810;6.418;2022-11-20T03:49:46;8.30;99.90
12115;DHT22;6121;49.810;6.418;2022-11-20T03:52:12;8.20;99.90
12115;DHT22;6121;49.810;6.418;2022-11-20T03:54:37;8.30;99.90
12115;DHT22;6121;49.810;6.418;2022-11-20T03:57:03;8.30;99.90
12115;DHT22;6121;49.810;6.418;2022-11-20T03:59:28;8.40;99.90
12115;DHT22;6121;49.810;6.418;2022-11-20T04:01:54;8.60;99.90
12115;DHT22;6121;49.810;6.418;2022-11-20T04:04:20;8.60;99.90
12115;DHT22;6121;49.810;6.418;2022-11-20T04:06:45;8.60;99.90
12115;DHT22;6121;49.810;6.418;2022-11-20T04:09:11;8.50;99.90
12115;DHT22;6121;49.810;6.418;2022-11-20T04:11:39;8.50;99.90
12115;DHT22;6121;49.810;6.418;2022-11-20T04:14:06;8.60;99.90
12115;DHT22;6121;49.810;6.418;2022-11-20T04:16:34;8.60;99.90
12115;DHT22;6121;49.810;6.418;2022-11-20T04:19:02;8.60;99.90
12115;DHT22;6121;49.810;6.418;2022-11-20T04:21:28;8.60;99.90
12115;DHT22;6121;49.810;6.418;2022-11-20T04:23:54;8.60;99.90
12115;DHT22;6121;49.810;6.418;2022-11-20T04:26:22;8.50;99.90
12115;DHT22;6121;49.810;6.418;2022-11-20T04:28:47;8.40;99.90
12115;DHT22;6121;49.810;6.418;2022-11-20T04:31:18;8.40;99.90
12115;DHT22;6121;49.810;6.418;2022-11-20T04:33:45;8.40;99.90
12115;DHT22;6121;49.810;6.418;2022-11-20T04:36:13;8.50;99.90
12115;DHT22;6121;49.810;6.418;2022-11-20T04:38:39;8.40;99.90
12115;DHT22;6121;49.810;6.418;2022-11-20T04:41:06;8.30;99.90
12115;DHT22;6121;49.810;6.418;2022-11-20T04:43:33;8.30;99.90
12115;DHT22;6121;49.810;6.418;2022-11-20T04:46:00;8.50;99.90
12115;DHT22;6121;49.810;6.418;2022-11-20T04:48:27;8.30;99.90
12115;DHT22;6121;49.810;6.418;2022-11-20T04:50:53;8.30;99.90
12115;DHT22;6121;49.810;6.418;2022-11-20T04:53:20;8.40;99.90
12115;DHT22;6121;49.810;6.418;2022-11-20T04:55:46;8.30;99.90
12115;DHT22;6121;49.810;6.418;2022-11-20T04:58:12;8.20;99.90
12115;DHT22;6121;49.810;6.418;2022-11-20T05:00:38;8.30;99.90
12115;DHT22;6121;49.810;6.418;2022-11-20T05:03:04;8.30;99.90
12115;DHT22;6121;49.810;6.418;2022-11-20T05:05:29;8.30;99.90
12115;DHT22;6121;49.810;6.418;2022-11-20T05:07:58;8.30;99.90
12115;DHT22;6121;49.810;6.418;2022-11-20T05:10:27;8.40;99.90
12115;DHT22;6121;49.810;6.418;2022-11-20T05:12:52;8.30;99.90
12115;DHT22;6121;49.810;6.418;2022-11-20T05:15:18;8.40;99.90
12115;DHT22;6121;49.810;6.418;2022-11-20T05:17:51;8.20;99.90
12115;DHT22;6121;49.810;6.418;2022-11-20T05:20:17;8.10;99.90
12115;DHT22;6121;49.810;6.418;2022-11-20T05:22:44;8.10;99.90
12115;DHT22;6121;49.810;6.418;2022-11-20T05:25:10;8.10;99.90
12115;DHT22;6121;49.810;6.418;2022-11-20T05:27:36;8.10;99.90
12115;DHT22;6121;49.810;6.418;2022-11-20T05:30:03;8.00;99.90
12115;DHT22;6121;49.810;6.418;2022-11-20T05:32:28;7.90;99.90
12115;DHT22;6121;49.810;6.418;2022-11-20T05:34:54;7.90;99.90
12115;DHT22;6121;49.810;6.418;2022-11-20T05:37:19;7.90;99.90
12115;DHT22;6121;49.810;6.418;2022-11-20T05:39:45;8.00;99.90
12115;DHT22;6121;49.810;6.418;2022-11-20T05:42:10;7.90;99.90
12115;DHT22;6121;49.810;6.418;2022-11-20T05:44:55;8.00;99.90
12115;DHT22;6121;49.810;6.418;2022-11-20T05:47:21;8.00;99.90
12115;DHT22;6121;49.810;6.418;2022-11-20T05:49:47;8.00;99.90
12115;DHT22;6121;49.810;6.418;2022-11-20T05:52:12;8.00;99.90
12115;DHT22;6121;49.810;6.418;2022-11-20T05:54:38;8.00;99.90
12115;DHT22;6121;49.810;6.418;2022-11-20T05:57:04;8.20;99.90
12115;DHT22;6121;49.810;6.418;2022-11-20T05:59:29;8.30;99.90
12115;DHT22;6121;49.810;6.418;2022-11-20T06:01:55;8.30;99.90
12115;DHT22;6121;49.810;6.418;2022-11-20T06:04:21;8.40;99.90
12115;DHT22;6121;49.810;6.418;2022-11-20T06:06:46;8.40;99.90
12115;DHT22;6121;49.810;6.418;2022-11-20T06:09:12;8.40;99.90
12115;DHT22;6121;49.810;6.418;2022-11-20T06:11:37;8.50;99.90
12115;DHT22;6121;49.810;6.418;2022-11-20T06:14:03;8.50;99.90
12115;DHT22;6121;49.810;6.418;2022-11-20T06:16:29;8.60;99.90
12115;DHT22;6121;49.810;6.418;2022-11-20T06:18:54;8.60;99.90
12115;DHT22;6121;49.810;6.418;2022-11-20T06:21:21;8.40;99.90
12115;DHT22;6121;49.810;6.418;2022-11-20T06:23:48;8.30;99.90
12115;DHT22;6121;49.810;6.418;2022-11-20T06:26:16;8.40;99.90
12115;DHT22;6121;49.810;6.418;2022-11-20T06:28:42;8.50;99.90
12115;DHT22;6121;49.810;6.418;2022-11-20T06:31:11;8.40;99.90
12115;DHT22;6121;49.810;6.418;2022-11-20T06:33:37;8.30;99.90
12115;DHT22;6121;49.810;6.418;2022-11-20T06:36:03;8.20;99.90
12115;DHT22;6121;49.810;6.418;2022-11-20T06:38:29;8.20;99.90
12115;DHT22;6121;49.810;6.418;2022-11-20T06:40:55;8.40;99.90
12115;DHT22;6121;49.810;6.418;2022-11-20T06:43:21;8.40;99.90
12115;DHT22;6121;49.810;6.418;2022-11-20T06:45:58;8.50;99.90
12115;DHT22;6121;49.810;6.418;2022-11-20T06:48:25;8.40;99.90
12115;DHT22;6121;49.810;6.418;2022-11-20T06:50:51;8.40;99.90
12115;DHT22;6121;49.810;6.418;2022-11-20T06:53:17;8.40;99.90
12115;DHT22;6121;49.810;6.418;2022-11-20T06:55:44;8.40;99.90
12115;DHT22;6121;49.810;6.418;2022-11-20T06:58:11;8.40;99.90
12115;DHT22;6121;49.810;6.418;2022-11-20T07:00:37;8.30;99.90
12115;DHT22;6121;49.810;6.418;2022-11-20T07:03:04;8.40;99.90
12115;DHT22;6121;49.810;6.418;2022-11-20T07:05:29;8.50;99.90
12115;DHT22;6121;49.810;6.418;2022-11-20T07:07:58;8.50;99.90
12115;DHT22;6121;49.810;6.418;2022-11-20T07:10:24;8.60;99.90
12115;DHT22;6121;49.810;6.418;2022-11-20T07:12:51;8.60;99.90
12115;DHT22;6121;49.810;6.418;2022-11-20T07:15:22;8.60;99.90
12115;DHT22;6121;49.810;6.418;2022-11-20T07:17:48;8.60;99.90
12115;DHT22;6121;49.810;6.418;2022-11-20T07:20:14;8.60;99.90
12115;DHT22;6121;49.810;6.418;2022-11-20T07:22:40;8.40;99.90
12115;DHT22;6121;49.810;6.418;2022-11-20T07:25:06;8.40;99.90
12115;DHT22;6121;49.810;6.418;2022-11-20T07:27:32;8.30;99.90
12115;DHT22;6121;49.810;6.418;2022-11-20T07:29:57;8.30;99.90
12115;DHT22;6121;49.810;6.418;2022-11-20T07:32:23;8.20;99.90
12115;DHT22;6121;49.810;6.418;2022-11-20T07:34:49;8.30;99.90
12115;DHT22;6121;49.810;6.418;2022-11-20T07:37:15;8.50;99.90
12115;DHT22;6121;49.810;6.418;2022-11-20T07:39:41;8.50;99.90
12115;DHT22;6121;49.810;6.418;2022-11-20T07:42:07;8.60;99.90
12115;DHT22;6121;49.810;6.418;2022-11-20T07:44:33;8.60;99.90
12115;DHT22;6121;49.810;6.418;2022-11-20T07:46:59;8.40;99.90
12115;DHT22;6121;49.810;6.418;2022-11-20T07:49:25;8.50;99.90
12115;DHT22;6121;49.810;6.418;2022-11-20T07:51:51;8.60;99.90
12115;DHT22;6121;49.810;6.418;2022-11-20T07:54:19;8.60;99.90
12115;DHT22;6121;49.810;6.418;2022-11-20T07:56:46;8.70;99.90
12115;DHT22;6121;49.810;6.418;2022-11-20T07:59:11;8.70;99.90
12115;DHT22;6121;49.810;6.418;2022-11-20T08:01:38;8.70;99.90
12115;DHT22;6121;49.810;6.418;2022-11-20T08:04:04;8.80;99.90
12115;DHT22;6121;49.810;6.418;2022-11-20T08:06:29;8.60;99.90
12115;DHT22;6121;49.810;6.418;2022-11-20T08:08:55;8.60;99.90
12115;DHT22;6121;49.810;6.418;2022-11-20T08:11:21;8.80;99.90
12115;DHT22;6121;49.810;6.418;2022-11-20T08:14:05;8.70;99.90
12115;DHT22;6121;49.810;6.418;2022-11-20T08:16:37;8.70;99.90
12115;DHT22;6121;49.810;6.418;2022-11-20T08:19:02;8.60;99.90
12115;DHT22;6121;49.810;6.418;2022-11-20T08:21:29;8.70;99.90
12115;DHT22;6121;49.810;6.418;2022-11-20T08:23:55;8.60;99.90
12115;DHT22;6121;49.810;6.418;2022-11-20T08:26:21;8.50;99.90
12115;DHT22;6121;49.810;6.418;2022-11-20T08:28:47;8.50;99.90
12115;DHT22;6121;49.810;6.418;2022-11-20T08:31:12;8.50;99.90
12115;DHT22;6121;49.810;6.418;2022-11-20T08:33:38;8.60;99.90
12115;DHT22;6121;49.810;6.418;2022-11-20T08:36:05;8.80;99.90
12115;DHT22;6121;49.810;6.418;2022-11-20T08:38:31;8.70;99.90
12115;DHT22;6121;49.810;6.418;2022-11-20T08:41:02;8.60;99.90
12115;DHT22;6121;49.810;6.418;2022-11-20T08:43:46;8.70;99.90
12115;DHT22;6121;49.810;6.418;2022-11-20T08:46:12;8.80;99.90
12115;DHT22;6121;49.810;6.418;2022-11-20T08:48:38;9.00;99.90
12115;DHT22;6121;49.810;6.418;2022-11-20T08:51:03;9.00;99.90
12115;DHT22;6121;49.810;6.418;2022-11-20T08:53:29;9.20;99.90
12115;DHT22;6121;49.810;6.418;2022-11-20T08:55:56;9.40;99.90
12115;DHT22;6121;49.810;6.418;2022-11-20T08:58:22;9.50;99.90
12115;DHT22;6121;49.810;6.418;2022-11-20T09:00:48;9.40;99.90
12115;DHT22;6121;49.810;6.418;2022-11-20T09:03:13;9.50;99.90
12115;DHT22;6121;49.810;6.418;2022-11-20T09:05:39;9.50;99.90
12115;DHT22;6121;49.810;6.418;2022-11-20T09:08:05;9.50;99.90
12115;DHT22;6121;49.810;6.418;2022-11-20T09:10:30;9.40;99.90
12115;DHT22;6121;49.810;6.418;2022-11-20T09:12:56;9.40;99.90
12115;DHT22;6121;49.810;6.418;2022-11-20T09:15:23;9.40;99.90
12115;DHT22;6121;49.810;6.418;2022-11-20T09:17:54;9.30;99.90
12115;DHT22;6121;49.810;6.418;2022-11-20T09:20:19;9.20;99.90
12115;DHT22;6121;49.810;6.418;2022-11-20T09:22:45;9.30;99.90
12115;DHT22;6121;49.810;6.418;2022-11-20T09:25:11;9.50;99.90
12115;DHT22;6121;49.810;6.418;2022-11-20T09:27:36;9.50;99.90
12115;DHT22;6121;49.810;6.418;2022-11-20T09:30:03;9.60;99.90
12115;DHT22;6121;49.810;6.418;2022-11-20T09:32:28;9.80;99.90
12115;DHT22;6121;49.810;6.418;2022-11-20T09:34:54;9.80;99.90
12115;DHT22;6121;49.810;6.418;2022-11-20T09:37:20;9.80;99.90
12115;DHT22;6121;49.810;6.418;2022-11-20T09:39:45;10.00;99.90
12115;DHT22;6121;49.810;6.418;2022-11-20T09:50:32;17.20;99.90
12115;DHT22;6121;49.810;6.418;2022-11-20T09:55:25;19.40;99.90
12115;DHT22;6121;49.810;6.418;2022-11-20T09:57:53;19.50;98.80
12115;DHT22;6121;49.810;6.418;2022-11-20T10:00:20;22.50;96.50
12115;DHT22;6121;49.810;6.418;2022-11-20T10:02:57;23.10;92.30
12115;DHT22;6121;49.810;6.418;2022-11-20T10:05:25;24.80;89.60
12115;DHT22;6121;49.810;6.418;2022-11-20T10:08:00;25.00;85.20
12115;DHT22;6121;49.810;6.418;2022-11-20T10:10:47;28.10;82.70
12115;DHT22;6121;49.810;6.418;2022-11-20T10:13:27;25.30;77.30
12115;DHT22;6121;49.810;6.418;2022-11-20T10:16:16;25.70;75.80
12115;DHT22;6121;49.810;6.418;2022-11-20T10:21:46;21.50;76.80
12115;DHT22;6121;49.810;6.418;2022-11-20T10:29:32;16.10;90.90
12115;DHT22;6121;49.810;6.418;2022-11-20T10:32:20;16.10;92.10
12115;DHT22;6121;49.810;6.418;2022-11-20T10:37:35;15.50;92.90
12115;DHT22;6121;49.810;6.418;2022-11-20T10:42:56;16.20;93.50
12115;DHT22;6121;49.810;6.418;2022-11-20T10:47:54;17.20;92.80
12115;DHT22;6121;49.810;6.418;2022-11-20T10:50:21;16.50;93.30
12115;DHT22;6121;49.810;6.418;2022-11-20T10:53:05;16.40;92.80
12115;DHT22;6121;49.810;6.418;2022-11-20T10:55:58;16.50;93.00
12115;DHT22;6121;49.810;6.418;2022-11-20T11:01:19;16.00;93.40
12115;DHT22;6121;49.810;6.418;2022-11-20T11:03:49;16.10;92.90
12115;DHT22;6121;49.810;6.418;2022-11-20T11:06:35;16.20;92.90
12115;DHT22;6121;49.810;6.418;2022-11-20T11:09:13;15.20;93.50
12115;DHT22;6121;49.810;6.418;2022-11-20T11:11:40;15.10;94.80
12115;DHT22;6121;49.810;6.418;2022-11-20T11:14:07;15.60;94.30
12115;DHT22;6121;49.810;6.418;2022-11-20T11:16:33;15.20;93.80
12115;DHT22;6121;49.810;6.418;2022-11-20T11:19:06;14.80;94.40
12115;DHT22;6121;49.810;6.418;2022-11-20T11:21:32;14.60;95.30
12115;DHT22;6121;49.810;6.418;2022-11-20T11:24:03;14.90;94.80
12115;DHT22;6121;49.810;6.418;2022-11-20T11:26:29;14.20;94.70
12115;DHT22;6121;49.810;6.418;2022-11-20T11:28:57;13.60;95.60
12115;DHT22;6121;49.810;6.418;2022-11-20T11:31:24;13.60;95.90
12115;DHT22;6121;49.810;6.418;2022-11-20T11:33:50;13.40;96.50
12115;DHT22;6121;49.810;6.418;2022-11-20T11:36:23;13.50;96.10
12115;DHT22;6121;49.810;6.418;2022-11-20T11:38:52;13.20;95.50
12115;DHT22;6121;49.810;6.418;2022-11-20T11:41:23;13.20;95.40
12115;DHT22;6121;49.810;6.418;2022-11-20T11:43:57;13.20;95.60
12115;DHT22;6121;49.810;6.418;2022-11-20T11:46:51;13.20;95.50
12115;DHT22;6121;49.810;6.418;2022-11-20T11:49:19;13.00;95.80
12115;DHT22;6121;49.810;6.418;2022-11-20T11:52:02;12.70;96.10
12115;DHT22;6121;49.810;6.418;2022-11-20T11:54:50;12.80;96.70
12115;DHT22;6121;49.810;6.418;2022-11-20T12:00:09;13.20;96.10
12115;DHT22;6121;49.810;6.418;2022-11-20T12:02:49;12.90;96.60
12115;DHT22;6121;49.810;6.418;2022-11-20T12:05:31;12.60;96.80
12115;DHT22;6121;49.810;6.418;2022-11-20T12:08:19;12.30;97.30
12115;DHT22;6121;49.810;6.418;2022-11-20T12:11:15;12.40;97.40
12115;DHT22;6121;49.810;6.418;2022-11-20T12:13:44;12.40;97.20
12115;DHT22;6121;49.810;6.418;2022-11-20T12:16:14;12.20;97.80
12115;DHT22;6121;49.810;6.418;2022-11-20T12:18:41;12.10;98.00
12115;DHT22;6121;49.810;6.418;2022-11-20T12:24:01;12.30;98.50
12115;DHT22;6121;49.810;6.418;2022-11-20T12:35:02;11.60;99.90
12115;DHT22;6121;49.810;6.418;2022-11-20T12:37:37;11.70;99.90
12115;DHT22;6121;49.810;6.418;2022-11-20T12:48:29;11.60;99.90
12115;DHT22;6121;49.810;6.418;2022-11-20T12:54:13;11.40;99.90
12115;DHT22;6121;49.810;6.418;2022-11-20T12:59:58;11.10;99.90
12115;DHT22;6121;49.810;6.418;2022-11-20T13:05:37;11.20;99.90
12115;DHT22;6121;49.810;6.418;2022-11-20T13:08:20;11.00;99.90
12115;DHT22;6121;49.810;6.418;2022-11-20T13:11:37;11.20;99.90
12115;DHT22;6121;49.810;6.418;2022-11-20T13:16:52;11.00;99.90
12115;DHT22;6121;49.810;6.418;2022-11-20T13:19:19;11.00;99.90
12115;DHT22;6121;49.810;6.418;2022-11-20T13:21:47;11.10;99.90
12115;DHT22;6121;49.810;6.418;2022-11-20T13:26:46;11.20;99.90
12115;DHT22;6121;49.810;6.418;2022-11-20T13:29:16;10.80;99.90
12115;DHT22;6121;49.810;6.418;2022-11-20T13:31:47;10.80;99.90
12115;DHT22;6121;49.810;6.418;2022-11-20T13:34:33;11.00;99.90
12115;DHT22;6121;49.810;6.418;2022-11-20T13:36:59;10.90;99.90
12115;DHT22;6121;49.810;6.418;2022-11-20T13:39:33;10.60;99.90
12115;DHT22;6121;49.810;6.418;2022-11-20T13:42:01;10.50;99.90
12115;DHT22;6121;49.810;6.418;2022-11-20T13:44:34;10.40;99.90
12115;DHT22;6121;49.810;6.418;2022-11-20T13:47:03;10.50;99.90
12115;DHT22;6121;49.810;6.418;2022-11-20T13:49:39;10.10;99.90
12115;DHT22;6121;49.810;6.418;2022-11-20T13:52:25;10.30;99.90
12115;DHT22;6121;49.810;6.418;2022-11-20T13:55:11;10.00;99.90
12115;DHT22;6121;49.810;6.418;2022-11-20T14:00:29;9.90;99.90
12115;DHT22;6121;49.810;6.418;2022-11-20T14:03:10;9.90;99.90
12115;DHT22;6121;49.810;6.418;2022-11-20T14:05:49;10.00;99.90
12115;DHT22;6121;49.810;6.418;2022-11-20T14:08:25;9.90;99.90
12115;DHT22;6121;49.810;6.418;2022-11-20T14:11:05;9.70;99.90
12115;DHT22;6121;49.810;6.418;2022-11-20T14:13:31;9.90;99.90
12115;DHT22;6121;49.810;6.418;2022-11-20T14:15:57;9.90;99.90
12115;DHT22;6121;49.810;6.418;2022-11-20T14:18:25;9.90;99.90
12115;DHT22;6121;49.810;6.418;2022-11-20T14:20:51;9.90;99.90
12115;DHT22;6121;49.810;6.418;2022-11-20T14:23:28;9.80;99.90
12115;DHT22;6121;49.810;6.418;2022-11-20T14:25:54;9.90;99.90
12115;DHT22;6121;49.810;6.418;2022-11-20T14:28:25;9.90;99.90
12115;DHT22;6121;49.810;6.418;2022-11-20T14:30:52;9.70;99.90
12115;DHT22;6121;49.810;6.418;2022-11-20T14:33:18;9.90;99.90
12115;DHT22;6121;49.810;6.418;2022-11-20T14:35:52;9.90;99.90
12115;DHT22;6121;49.810;6.418;2022-11-20T14:38:22;9.90;99.90
12115;DHT22;6121;49.810;6.418;2022-11-20T14:40:47;9.80;99.90
12115;DHT22;6121;49.810;6.418;2022-11-20T14:43:27;9.80;99.90
12115;DHT22;6121;49.810;6.418;2022-11-20T14:45:58;9.90;99.90
12115;DHT22;6121;49.810;6.418;2022-11-20T14:48:39;9.90;99.90
12115;DHT22;6121;49.810;6.418;2022-11-20T14:51:05;9.80;99.90
12115;DHT22;6121;49.810;6.418;2022-11-20T14:53:33;9.90;99.90
12115;DHT22;6121;49.810;6.418;2022-11-20T14:56:01;9.80;99.90
12115;DHT22;6121;49.810;6.418;2022-11-20T14:58:32;9.90;99.90
12115;DHT22;6121;49.810;6.418;2022-11-20T15:01:04;9.60;99.90
12115;DHT22;6121;49.810;6.418;2022-11-20T15:03:39;9.60;99.90
12115;DHT22;6121;49.810;6.418;2022-11-20T15:06:07;9.50;99.90
12115;DHT22;6121;49.810;6.418;2022-11-20T15:08:34;9.50;99.90
12115;DHT22;6121;49.810;6.418;2022-11-20T15:10:59;9.50;99.90
12115;DHT22;6121;49.810;6.418;2022-11-20T15:13:33;9.30;99.90
12115;DHT22;6121;49.810;6.418;2022-11-20T15:16:00;9.20;99.90
12115;DHT22;6121;49.810;6.418;2022-11-20T15:18:32;9.40;99.90
12115;DHT22;6121;49.810;6.418;2022-11-20T15:21:02;9.10;99.90
12115;DHT22;6121;49.810;6.418;2022-11-20T15:23:29;9.30;99.90
12115;DHT22;6121;49.810;6.418;2022-11-20T15:25:55;9.20;99.90
12115;DHT22;6121;49.810;6.418;2022-11-20T15:28:29;9.00;99.90
12115;DHT22;6121;49.810;6.418;2022-11-20T15:30:55;8.90;99.90
12115;DHT22;6121;49.810;6.418;2022-11-20T15:33:21;8.80;99.90
12115;DHT22;6121;49.810;6.418;2022-11-20T15:35:47;8.90;99.90
12115;DHT22;6121;49.810;6.418;2022-11-20T15:38:13;9.00;99.90
12115;DHT22;6121;49.810;6.418;2022-11-20T15:40:39;8.90;99.90
12115;DHT22;6121;49.810;6.418;2022-11-20T15:43:05;9.00;99.90
12115;DHT22;6121;49.810;6.418;2022-11-20T15:45:53;9.10;99.90
12115;DHT22;6121;49.810;6.418;2022-11-20T15:48:21;8.90;99.90
12115;DHT22;6121;49.810;6.418;2022-11-20T15:53:19;8.70;99.90
12115;DHT22;6121;49.810;6.418;2022-11-20T15:55:45;8.60;99.90
12115;DHT22;6121;49.810;6.418;2022-11-20T15:58:10;8.70;99.90
12115;DHT22;6121;49.810;6.418;2022-11-20T16:00:36;8.80;99.90
12115;DHT22;6121;49.810;6.418;2022-11-20T16:03:02;8.90;99.90
12115;DHT22;6121;49.810;6.418;2022-11-20T16:05:28;8.60;99.90
12115;DHT22;6121;49.810;6.418;2022-11-20T16:07:54;8.60;99.90
12115;DHT22;6121;49.810;6.418;2022-11-20T16:10:20;8.40;99.90
12115;DHT22;6121;49.810;6.418;2022-11-20T16:12:46;8.40;99.90
12115;DHT22;6121;49.810;6.418;2022-11-20T16:15:30;8.20;99.90
12115;DHT22;6121;49.810;6.418;2022-11-20T16:18:16;8.20;99.90
12115;DHT22;6121;49.810;6.418;2022-11-20T16:20:42;8.30;99.90
12115;DHT22;6121;49.810;6.418;2022-11-20T16:23:08;8.10;99.90
12115;DHT22;6121;49.810;6.418;2022-11-20T16:25:34;8.10;99.90
12115;DHT22;6121;49.810;6.418;2022-11-20T16:27:59;8.10;99.90
12115;DHT22;6121;49.810;6.418;2022-11-20T16:30:26;8.00;99.90
12115;DHT22;6121;49.810;6.418;2022-11-20T16:32:51;8.10;99.90
12115;DHT22;6121;49.810;6.418;2022-11-20T16:35:17;8.20;99.90
12115;DHT22;6121;49.810;6.418;2022-11-20T16:37:42;8.30;99.90
12115;DHT22;6121;49.810;6.418;2022-11-20T16:40:09;8.20;99.90
12115;DHT22;6121;49.810;6.418;2022-11-20T16:42:36;8.10;99.90
12115;DHT22;6121;49.810;6.418;2022-11-20T16:45:03;8.30;99.90
12115;DHT22;6121;49.810;6.418;2022-11-20T16:47:33;8.50;99.90
12115;DHT22;6121;49.810;6.418;2022-11-20T16:49:59;8.60;99.90
12115;DHT22;6121;49.810;6.418;2022-11-20T16:52:24;8.60;99.90
12115;DHT22;6121;49.810;6.418;2022-11-20T16:54:50;8.70;99.90
12115;DHT22;6121;49.810;6.418;2022-11-20T16:57:15;8.40;99.90
12115;DHT22;6121;49.810;6.418;2022-11-20T16:59:41;8.50;99.90
12115;DHT22;6121;49.810;6.418;2022-11-20T17:02:08;8.40;99.90
12115;DHT22;6121;49.810;6.418;2022-11-20T17:04:34;8.40;99.90
12115;DHT22;6121;49.810;6.418;2022-11-20T17:07:00;8.40;99.90
12115;DHT22;6121;49.810;6.418;2022-11-20T17:09:27;8.50;99.90
12115;DHT22;6121;49.810;6.418;2022-11-20T17:11:53;8.50;99.90
12115;DHT22;6121;49.810;6.418;2022-11-20T17:14:18;8.50;99.90
12115;DHT22;6121;49.810;6.418;2022-11-20T17:16:44;8.30;99.90
12115;DHT22;6121;49.810;6.418;2022-11-20T17:19:10;8.20;99.90
12115;DHT22;6121;49.810;6.418;2022-11-20T17:21:36;8.10;99.90
12115;DHT22;6121;49.810;6.418;2022-11-20T17:24:04;8.10;99.90
12115;DHT22;6121;49.810;6.418;2022-11-20T17:26:30;8.20;99.90